Augusto C. Sandino (Managua) International Airport
MNMG : rendu visible

Aérodrome :











RETROUVEZ-NOUS SUR...

 
LOGIN :

S'inscrire | Disclaimer

   EN    FR    IT 

 









Légende :    VFR   VFR Marginal   IFR   IFR Intensif   IFR Très Intensif
Visi : 
Plafond : 
>= 8 km
>= 3000ft
5 à 8 km
1000 à 3000 ft
1500m à 5 km
500 à 1000 ft
800 à 1500m
200 à 500 ft
< 800m
< 200 ft
Symboles :   Orages  Brouillard  Fortes neiges  Fortes précipitations  Vent > 20 kt






- Altitude de l'aérodrome : 194 ft
- Code IATA : MGA


MNMG - Augusto C. Sandino (Managua) International

DERNIER METAR :
  • 270500Z 28004KT 9999 FEW021 27/18 Q1013 A2994 NOSIG

METARs EXPIRÉS :
  • 270400Z 30004KT 9999 FEW021 28/17 Q1013 A2994 NOSIG
  • 270300Z 28006KT 9999 FEW021 28/18 Q1013 A2991 NOSIG

TAF MNMG
Valide du 27 à 06h jusqu'au 28 à 06h UTC


270320Z 2706/2806 28006KT 9999 FEW021 SCT080
BECMG 2712/2718 09010KT 9999 FEW024
TEMPO 2719/2723 14012KT



MET'MAP, la Météo Aéronautique d'un coup d'oeil ! - Copyright ORBIFLY Décembre 2007 - Disclaimer

ORBIFLY MET'MAP TEAM :

Programmation & Développement : Alexandra Zaïnal
Sur une idée originale de : Baudouin d'Aumeries
Assistance à la programmation : Marc-Olivier Méhu
Soutien technique & logistique : Manuel Goepfert

Contact : metmap@orbifly.com




SOURCES & CREDITS :

   NOAA       Earth
Advisory